sensor_id;sensor_type;location;lat;lon;timestamp;temperature;humidity
15937;DHT22;9163;48.818;8.976;2023-04-24T00:01:25;9.90;99.90
15937;DHT22;9163;48.818;8.976;2023-04-24T00:03:54;9.90;99.90
15937;DHT22;9163;48.818;8.976;2023-04-24T00:06:21;10.00;99.90
15937;DHT22;9163;48.818;8.976;2023-04-24T00:08:49;10.00;99.90
15937;DHT22;9163;48.818;8.976;2023-04-24T00:11:16;10.00;99.90
15937;DHT22;9163;48.818;8.976;2023-04-24T00:13:44;10.00;99.90
15937;DHT22;9163;48.818;8.976;2023-04-24T00:16:11;10.00;99.90
15937;DHT22;9163;48.818;8.976;2023-04-24T00:18:38;10.10;99.90
15937;DHT22;9163;48.818;8.976;2023-04-24T00:21:07;10.10;99.90
15937;DHT22;9163;48.818;8.976;2023-04-24T00:23:34;10.10;99.90
15937;DHT22;9163;48.818;8.976;2023-04-24T00:26:01;10.10;99.90
15937;DHT22;9163;48.818;8.976;2023-04-24T00:28:28;10.20;99.90
15937;DHT22;9163;48.818;8.976;2023-04-24T00:30:56;10.20;99.90
15937;DHT22;9163;48.818;8.976;2023-04-24T00:33:23;10.20;99.90
15937;DHT22;9163;48.818;8.976;2023-04-24T00:35:50;10.20;99.90
15937;DHT22;9163;48.818;8.976;2023-04-24T00:38:19;10.20;99.90
15937;DHT22;9163;48.818;8.976;2023-04-24T00:40:46;10.30;99.90
15937;DHT22;9163;48.818;8.976;2023-04-24T00:43:14;10.20;99.90
15937;DHT22;9163;48.818;8.976;2023-04-24T00:45:41;10.20;99.90
15937;DHT22;9163;48.818;8.976;2023-04-24T00:48:09;10.30;99.90
15937;DHT22;9163;48.818;8.976;2023-04-24T00:50:36;10.20;99.90
15937;DHT22;9163;48.818;8.976;2023-04-24T00:53:05;10.20;99.90
15937;DHT22;9163;48.818;8.976;2023-04-24T00:55:33;10.20;99.90
15937;DHT22;9163;48.818;8.976;2023-04-24T00:58:01;10.20;99.90
15937;DHT22;9163;48.818;8.976;2023-04-24T01:00:28;10.20;99.90
15937;DHT22;9163;48.818;8.976;2023-04-24T01:02:57;10.20;99.90
15937;DHT22;9163;48.818;8.976;2023-04-24T01:05:25;10.20;99.90
15937;DHT22;9163;48.818;8.976;2023-04-24T01:07:52;10.20;99.90
15937;DHT22;9163;48.818;8.976;2023-04-24T01:10:20;10.20;99.90
15937;DHT22;9163;48.818;8.976;2023-04-24T01:12:48;10.10;99.90
15937;DHT22;9163;48.818;8.976;2023-04-24T01:15:16;10.10;99.90
15937;DHT22;9163;48.818;8.976;2023-04-24T01:17:43;10.00;99.90
15937;DHT22;9163;48.818;8.976;2023-04-24T01:20:11;10.00;99.90
15937;DHT22;9163;48.818;8.976;2023-04-24T01:22:39;10.00;99.90
15937;DHT22;9163;48.818;8.976;2023-04-24T01:25:08;9.90;99.90
15937;DHT22;9163;48.818;8.976;2023-04-24T01:27:35;9.90;99.90
15937;DHT22;9163;48.818;8.976;2023-04-24T01:30:03;9.90;99.90
15937;DHT22;9163;48.818;8.976;2023-04-24T01:32:30;9.90;99.90
15937;DHT22;9163;48.818;8.976;2023-04-24T01:34:58;9.90;99.90
15937;DHT22;9163;48.818;8.976;2023-04-24T01:37:25;9.80;99.90
15937;DHT22;9163;48.818;8.976;2023-04-24T01:39:54;9.80;99.90
15937;DHT22;9163;48.818;8.976;2023-04-24T01:42:21;9.80;99.90
15937;DHT22;9163;48.818;8.976;2023-04-24T01:44:49;9.80;99.90
15937;DHT22;9163;48.818;8.976;2023-04-24T01:47:17;9.80;99.90
15937;DHT22;9163;48.818;8.976;2023-04-24T01:49:45;9.70;99.90
15937;DHT22;9163;48.818;8.976;2023-04-24T01:52:14;9.70;99.90
15937;DHT22;9163;48.818;8.976;2023-04-24T01:54:42;9.70;99.90
15937;DHT22;9163;48.818;8.976;2023-04-24T01:57:10;9.60;99.90
15937;DHT22;9163;48.818;8.976;2023-04-24T01:59:38;9.60;99.90
15937;DHT22;9163;48.818;8.976;2023-04-24T02:02:05;9.70;99.90
15937;DHT22;9163;48.818;8.976;2023-04-24T02:04:33;9.70;99.90
15937;DHT22;9163;48.818;8.976;2023-04-24T02:07:00;9.60;99.90
15937;DHT22;9163;48.818;8.976;2023-04-24T02:09:27;9.60;99.90
15937;DHT22;9163;48.818;8.976;2023-04-24T02:11:54;9.60;99.90
15937;DHT22;9163;48.818;8.976;2023-04-24T02:14:23;9.60;99.90
15937;DHT22;9163;48.818;8.976;2023-04-24T02:16:51;9.60;99.90
15937;DHT22;9163;48.818;8.976;2023-04-24T02:19:19;9.50;99.90
15937;DHT22;9163;48.818;8.976;2023-04-24T02:21:46;9.60;99.90
15937;DHT22;9163;48.818;8.976;2023-04-24T02:24:13;9.60;99.90
15937;DHT22;9163;48.818;8.976;2023-04-24T02:26:41;9.60;99.90
15937;DHT22;9163;48.818;8.976;2023-04-24T02:29:09;9.60;99.90
15937;DHT22;9163;48.818;8.976;2023-04-24T02:31:37;9.60;99.90
15937;DHT22;9163;48.818;8.976;2023-04-24T02:34:04;9.60;99.90
15937;DHT22;9163;48.818;8.976;2023-04-24T02:36:32;9.60;99.90
15937;DHT22;9163;48.818;8.976;2023-04-24T02:38:59;9.50;99.90
15937;DHT22;9163;48.818;8.976;2023-04-24T02:41:26;9.50;99.90
15937;DHT22;9163;48.818;8.976;2023-04-24T02:43:57;9.50;99.90
15937;DHT22;9163;48.818;8.976;2023-04-24T02:46:25;9.50;99.90
15937;DHT22;9163;48.818;8.976;2023-04-24T02:48:53;9.50;99.90
15937;DHT22;9163;48.818;8.976;2023-04-24T02:51:21;9.50;99.90
15937;DHT22;9163;48.818;8.976;2023-04-24T02:53:48;9.40;99.90
15937;DHT22;9163;48.818;8.976;2023-04-24T02:56:15;9.30;99.90
15937;DHT22;9163;48.818;8.976;2023-04-24T02:58:42;9.30;99.90
15937;DHT22;9163;48.818;8.976;2023-04-24T03:01:10;9.30;99.90
15937;DHT22;9163;48.818;8.976;2023-04-24T03:03:37;9.30;99.90
15937;DHT22;9163;48.818;8.976;2023-04-24T03:06:06;9.30;99.90
15937;DHT22;9163;48.818;8.976;2023-04-24T03:08:33;9.20;99.90
15937;DHT22;9163;48.818;8.976;2023-04-24T03:11:01;9.20;99.90
15937;DHT22;9163;48.818;8.976;2023-04-24T03:13:28;9.10;99.90
15937;DHT22;9163;48.818;8.976;2023-04-24T03:15:55;9.10;99.90
15937;DHT22;9163;48.818;8.976;2023-04-24T03:18:22;9.00;99.90
15937;DHT22;9163;48.818;8.976;2023-04-24T03:20:50;8.90;99.90
15937;DHT22;9163;48.818;8.976;2023-04-24T03:23:18;8.90;99.90
15937;DHT22;9163;48.818;8.976;2023-04-24T03:25:45;8.90;99.90
15937;DHT22;9163;48.818;8.976;2023-04-24T03:28:14;9.00;99.90
15937;DHT22;9163;48.818;8.976;2023-04-24T03:30:41;9.00;99.90
15937;DHT22;9163;48.818;8.976;2023-04-24T03:33:08;8.90;99.90
15937;DHT22;9163;48.818;8.976;2023-04-24T03:35:36;8.90;99.90
15937;DHT22;9163;48.818;8.976;2023-04-24T03:38:03;8.80;99.90
15937;DHT22;9163;48.818;8.976;2023-04-24T03:40:32;8.80;99.90
15937;DHT22;9163;48.818;8.976;2023-04-24T03:43:00;8.70;99.90
15937;DHT22;9163;48.818;8.976;2023-04-24T03:45:27;8.70;99.90
15937;DHT22;9163;48.818;8.976;2023-04-24T03:47:55;8.70;99.90
15937;DHT22;9163;48.818;8.976;2023-04-24T03:50:22;8.70;99.90
15937;DHT22;9163;48.818;8.976;2023-04-24T03:52:49;8.70;99.90
15937;DHT22;9163;48.818;8.976;2023-04-24T03:55:16;8.70;99.90
15937;DHT22;9163;48.818;8.976;2023-04-24T03:57:45;8.80;99.90
15937;DHT22;9163;48.818;8.976;2023-04-24T04:00:13;8.70;99.90
15937;DHT22;9163;48.818;8.976;2023-04-24T04:02:40;8.70;99.90
15937;DHT22;9163;48.818;8.976;2023-04-24T04:05:07;8.80;99.90
15937;DHT22;9163;48.818;8.976;2023-04-24T04:07:35;8.80;99.90
15937;DHT22;9163;48.818;8.976;2023-04-24T04:10:02;8.90;99.90
15937;DHT22;9163;48.818;8.976;2023-04-24T04:12:30;8.90;99.90
15937;DHT22;9163;48.818;8.976;2023-04-24T04:14:58;8.90;99.90
15937;DHT22;9163;48.818;8.976;2023-04-24T04:17:26;8.90;99.90
15937;DHT22;9163;48.818;8.976;2023-04-24T04:19:53;8.80;99.90
15937;DHT22;9163;48.818;8.976;2023-04-24T04:22:21;8.80;99.90
15937;DHT22;9163;48.818;8.976;2023-04-24T04:24:48;8.70;99.90
15937;DHT22;9163;48.818;8.976;2023-04-24T04:27:17;8.70;99.90
15937;DHT22;9163;48.818;8.976;2023-04-24T04:29:44;8.70;99.90
15937;DHT22;9163;48.818;8.976;2023-04-24T04:32:13;8.50;99.90
15937;DHT22;9163;48.818;8.976;2023-04-24T04:34:41;8.50;99.90
15937;DHT22;9163;48.818;8.976;2023-04-24T04:37:08;8.40;99.90
15937;DHT22;9163;48.818;8.976;2023-04-24T04:39:37;8.40;99.90
15937;DHT22;9163;48.818;8.976;2023-04-24T04:42:04;8.40;99.90
15937;DHT22;9163;48.818;8.976;2023-04-24T04:44:32;8.30;99.90
15937;DHT22;9163;48.818;8.976;2023-04-24T04:47:01;8.40;99.90
15937;DHT22;9163;48.818;8.976;2023-04-24T04:49:32;8.40;99.90
15937;DHT22;9163;48.818;8.976;2023-04-24T04:52:00;8.40;99.90
15937;DHT22;9163;48.818;8.976;2023-04-24T04:54:27;8.30;99.90
15937;DHT22;9163;48.818;8.976;2023-04-24T04:56:54;8.30;99.90
15937;DHT22;9163;48.818;8.976;2023-04-24T04:59:23;8.10;99.90
15937;DHT22;9163;48.818;8.976;2023-04-24T05:01:51;8.10;99.90
15937;DHT22;9163;48.818;8.976;2023-04-24T05:04:18;8.10;99.90
15937;DHT22;9163;48.818;8.976;2023-04-24T05:06:46;8.10;99.90
15937;DHT22;9163;48.818;8.976;2023-04-24T05:09:14;8.00;99.90
15937;DHT22;9163;48.818;8.976;2023-04-24T05:11:41;8.10;99.90
15937;DHT22;9163;48.818;8.976;2023-04-24T05:14:09;8.00;99.90
15937;DHT22;9163;48.818;8.976;2023-04-24T05:16:36;8.00;99.90
15937;DHT22;9163;48.818;8.976;2023-04-24T05:19:03;8.00;99.90
15937;DHT22;9163;48.818;8.976;2023-04-24T05:21:31;8.10;99.90
15937;DHT22;9163;48.818;8.976;2023-04-24T05:23:59;8.10;99.90
15937;DHT22;9163;48.818;8.976;2023-04-24T05:26:27;8.00;99.90
15937;DHT22;9163;48.818;8.976;2023-04-24T05:28:54;8.00;99.90
15937;DHT22;9163;48.818;8.976;2023-04-24T05:31:21;8.00;99.90
15937;DHT22;9163;48.818;8.976;2023-04-24T05:33:48;7.90;99.90
15937;DHT22;9163;48.818;8.976;2023-04-24T05:36:15;7.90;99.90
15937;DHT22;9163;48.818;8.976;2023-04-24T05:38:43;8.00;99.90
15937;DHT22;9163;48.818;8.976;2023-04-24T05:41:11;8.10;99.90
15937;DHT22;9163;48.818;8.976;2023-04-24T05:43:38;8.20;99.90
15937;DHT22;9163;48.818;8.976;2023-04-24T05:46:05;8.30;99.90
15937;DHT22;9163;48.818;8.976;2023-04-24T05:48:33;8.50;99.90
15937;DHT22;9163;48.818;8.976;2023-04-24T05:51:00;8.50;99.90
15937;DHT22;9163;48.818;8.976;2023-04-24T05:53:27;8.50;99.90
15937;DHT22;9163;48.818;8.976;2023-04-24T05:55:54;8.50;99.90
15937;DHT22;9163;48.818;8.976;2023-04-24T05:58:23;8.50;99.90
15937;DHT22;9163;48.818;8.976;2023-04-24T06:00:50;8.40;99.90
15937;DHT22;9163;48.818;8.976;2023-04-24T06:03:17;8.40;99.90
15937;DHT22;9163;48.818;8.976;2023-04-24T06:05:45;8.50;99.90
15937;DHT22;9163;48.818;8.976;2023-04-24T06:08:12;8.60;99.90
15937;DHT22;9163;48.818;8.976;2023-04-24T06:10:39;8.70;99.90
15937;DHT22;9163;48.818;8.976;2023-04-24T06:13:07;8.90;99.90
15937;DHT22;9163;48.818;8.976;2023-04-24T06:15:35;9.10;99.90
15937;DHT22;9163;48.818;8.976;2023-04-24T06:18:03;9.20;99.90
15937;DHT22;9163;48.818;8.976;2023-04-24T06:20:30;9.30;99.90
15937;DHT22;9163;48.818;8.976;2023-04-24T06:22:57;9.30;99.90
15937;DHT22;9163;48.818;8.976;2023-04-24T06:25:25;9.50;99.90
15937;DHT22;9163;48.818;8.976;2023-04-24T06:27:53;9.50;99.90
15937;DHT22;9163;48.818;8.976;2023-04-24T06:30:21;9.60;99.90
15937;DHT22;9163;48.818;8.976;2023-04-24T06:32:50;9.70;99.90
15937;DHT22;9163;48.818;8.976;2023-04-24T06:35:17;10.10;99.90
15937;DHT22;9163;48.818;8.976;2023-04-24T06:37:44;10.20;99.90
15937;DHT22;9163;48.818;8.976;2023-04-24T06:40:11;10.20;99.90
15937;DHT22;9163;48.818;8.976;2023-04-24T06:42:38;10.40;99.90
15937;DHT22;9163;48.818;8.976;2023-04-24T06:45:06;10.70;99.90
15937;DHT22;9163;48.818;8.976;2023-04-24T06:47:34;10.80;99.90
15937;DHT22;9163;48.818;8.976;2023-04-24T06:50:03;11.00;99.90
15937;DHT22;9163;48.818;8.976;2023-04-24T06:52:30;11.20;99.90
15937;DHT22;9163;48.818;8.976;2023-04-24T06:55:00;11.20;99.90
15937;DHT22;9163;48.818;8.976;2023-04-24T06:57:28;11.00;99.90
15937;DHT22;9163;48.818;8.976;2023-04-24T06:59:55;10.90;99.90
15937;DHT22;9163;48.818;8.976;2023-04-24T07:02:23;10.50;99.90
15937;DHT22;9163;48.818;8.976;2023-04-24T07:04:50;10.30;99.90
15937;DHT22;9163;48.818;8.976;2023-04-24T07:07:20;10.00;99.90
15937;DHT22;9163;48.818;8.976;2023-04-24T07:09:47;10.00;99.90
15937;DHT22;9163;48.818;8.976;2023-04-24T07:12:14;9.80;99.90
15937;DHT22;9163;48.818;8.976;2023-04-24T07:14:42;9.80;99.90
15937;DHT22;9163;48.818;8.976;2023-04-24T07:17:10;9.90;99.90
15937;DHT22;9163;48.818;8.976;2023-04-24T07:19:39;10.10;99.90
15937;DHT22;9163;48.818;8.976;2023-04-24T07:22:06;10.40;99.90
15937;DHT22;9163;48.818;8.976;2023-04-24T07:24:34;10.50;99.90
15937;DHT22;9163;48.818;8.976;2023-04-24T07:27:02;10.30;99.90
15937;DHT22;9163;48.818;8.976;2023-04-24T07:29:29;10.40;99.90
15937;DHT22;9163;48.818;8.976;2023-04-24T07:31:56;10.30;99.90
15937;DHT22;9163;48.818;8.976;2023-04-24T07:34:24;10.50;97.80
15937;DHT22;9163;48.818;8.976;2023-04-24T07:36:51;10.30;77.10
15937;DHT22;9163;48.818;8.976;2023-04-24T07:39:18;10.20;91.80
15937;DHT22;9163;48.818;8.976;2023-04-24T07:41:47;10.30;90.30
15937;DHT22;9163;48.818;8.976;2023-04-24T07:44:14;10.30;86.40
15937;DHT22;9163;48.818;8.976;2023-04-24T07:46:41;10.20;74.40
15937;DHT22;9163;48.818;8.976;2023-04-24T07:49:08;10.10;92.30
15937;DHT22;9163;48.818;8.976;2023-04-24T07:51:36;10.20;63.40
15937;DHT22;9163;48.818;8.976;2023-04-24T07:54:04;10.30;79.00
15937;DHT22;9163;48.818;8.976;2023-04-24T07:56:32;10.40;75.70
15937;DHT22;9163;48.818;8.976;2023-04-24T07:59:01;10.50;71.60
15937;DHT22;9163;48.818;8.976;2023-04-24T08:01:29;10.70;60.00
15937;DHT22;9163;48.818;8.976;2023-04-24T08:03:56;10.80;42.60
15937;DHT22;9163;48.818;8.976;2023-04-24T08:06:23;10.80;44.10
15937;DHT22;9163;48.818;8.976;2023-04-24T08:08:53;10.90;53.80
15937;DHT22;9163;48.818;8.976;2023-04-24T08:11:21;11.10;56.30
15937;DHT22;9163;48.818;8.976;2023-04-24T08:13:48;11.30;89.10
15937;DHT22;9163;48.818;8.976;2023-04-24T08:16:16;11.10;62.80
15937;DHT22;9163;48.818;8.976;2023-04-24T08:18:44;11.20;55.00
15937;DHT22;9163;48.818;8.976;2023-04-24T08:21:11;11.00;63.30
15937;DHT22;9163;48.818;8.976;2023-04-24T08:23:42;10.90;51.30
15937;DHT22;9163;48.818;8.976;2023-04-24T08:26:10;10.80;56.20
15937;DHT22;9163;48.818;8.976;2023-04-24T08:28:37;10.60;62.50
15937;DHT22;9163;48.818;8.976;2023-04-24T08:31:05;10.50;71.60
15937;DHT22;9163;48.818;8.976;2023-04-24T08:33:33;10.40;83.30
15937;DHT22;9163;48.818;8.976;2023-04-24T08:36:02;10.40;91.30
15937;DHT22;9163;48.818;8.976;2023-04-24T08:38:29;10.20;52.70
15937;DHT22;9163;48.818;8.976;2023-04-24T08:40:58;9.90;99.90
15937;DHT22;9163;48.818;8.976;2023-04-24T08:43:26;9.70;99.90
15937;DHT22;9163;48.818;8.976;2023-04-24T08:45:56;9.80;99.90
15937;DHT22;9163;48.818;8.976;2023-04-24T08:48:25;9.90;74.30
15937;DHT22;9163;48.818;8.976;2023-04-24T08:50:55;10.00;84.40
15937;DHT22;9163;48.818;8.976;2023-04-24T08:53:24;10.00;89.70
15937;DHT22;9163;48.818;8.976;2023-04-24T08:55:54;10.00;67.90
15937;DHT22;9163;48.818;8.976;2023-04-24T08:58:24;9.90;76.70
15937;DHT22;9163;48.818;8.976;2023-04-24T09:00:53;10.00;80.60
15937;DHT22;9163;48.818;8.976;2023-04-24T09:03:21;9.70;96.50
15937;DHT22;9163;48.818;8.976;2023-04-24T09:05:49;9.50;97.40
15937;DHT22;9163;48.818;8.976;2023-04-24T09:08:19;9.30;99.90
15937;DHT22;9163;48.818;8.976;2023-04-24T09:10:46;9.20;99.90
15937;DHT22;9163;48.818;8.976;2023-04-24T09:13:14;9.20;99.90
15937;DHT22;9163;48.818;8.976;2023-04-24T09:15:42;9.30;99.90
15937;DHT22;9163;48.818;8.976;2023-04-24T09:18:10;9.40;99.90
15937;DHT22;9163;48.818;8.976;2023-04-24T09:20:58;9.30;99.90
15937;DHT22;9163;48.818;8.976;2023-04-24T09:23:28;9.50;99.90
15937;DHT22;9163;48.818;8.976;2023-04-24T09:25:56;10.00;99.90
15937;DHT22;9163;48.818;8.976;2023-04-24T09:28:26;10.20;99.90
15937;DHT22;9163;48.818;8.976;2023-04-24T09:31:07;10.30;90.80
15937;DHT22;9163;48.818;8.976;2023-04-24T09:33:35;10.10;78.90
15937;DHT22;9163;48.818;8.976;2023-04-24T09:36:04;10.20;87.80
15937;DHT22;9163;48.818;8.976;2023-04-24T09:38:34;10.20;72.80
15937;DHT22;9163;48.818;8.976;2023-04-24T09:41:03;9.90;64.20
15937;DHT22;9163;48.818;8.976;2023-04-24T14:02:39;11.20;56.60
15937;DHT22;9163;48.818;8.976;2023-04-24T14:05:10;11.90;5.30
15937;DHT22;9163;48.818;8.976;2023-04-24T14:07:38;12.10;18.60
15937;DHT22;9163;48.818;8.976;2023-04-24T14:10:06;12.10;1.00
15937;DHT22;9163;48.818;8.976;2023-04-24T14:12:33;11.90;2.60
15937;DHT22;9163;48.818;8.976;2023-04-24T14:15:01;11.90;1.00
15937;DHT22;9163;48.818;8.976;2023-04-24T14:17:28;11.60;12.30
15937;DHT22;9163;48.818;8.976;2023-04-24T14:19:57;11.60;6.50
15937;DHT22;9163;48.818;8.976;2023-04-24T14:26:07;11.00;17.40
15937;DHT22;9163;48.818;8.976;2023-04-24T14:28:35;11.00;26.40
15937;DHT22;9163;48.818;8.976;2023-04-24T14:31:02;10.90;22.00
15937;DHT22;9163;48.818;8.976;2023-04-24T14:33:29;10.70;29.40
15937;DHT22;9163;48.818;8.976;2023-04-24T14:35:58;10.70;33.90
15937;DHT22;9163;48.818;8.976;2023-04-24T14:38:25;10.90;24.00
15937;DHT22;9163;48.818;8.976;2023-04-24T14:40:52;11.00;29.80
15937;DHT22;9163;48.818;8.976;2023-04-24T14:43:19;10.80;29.20
15937;DHT22;9163;48.818;8.976;2023-04-24T14:45:47;11.00;32.20
15937;DHT22;9163;48.818;8.976;2023-04-24T14:48:14;11.10;15.50
15937;DHT22;9163;48.818;8.976;2023-04-24T14:50:42;11.20;8.80
15937;DHT22;9163;48.818;8.976;2023-04-24T14:53:10;11.00;14.10
15937;DHT22;9163;48.818;8.976;2023-04-24T14:55:38;10.90;16.80
15937;DHT22;9163;48.818;8.976;2023-04-24T14:58:05;10.80;17.70
15937;DHT22;9163;48.818;8.976;2023-04-24T15:00:32;10.90;20.30
15937;DHT22;9163;48.818;8.976;2023-04-24T15:03:00;10.80;27.00
15937;DHT22;9163;48.818;8.976;2023-04-24T15:05:27;10.80;26.30
15937;DHT22;9163;48.818;8.976;2023-04-24T15:07:56;10.80;32.10
15937;DHT22;9163;48.818;8.976;2023-04-24T15:10:24;10.50;27.30
15937;DHT22;9163;48.818;8.976;2023-04-24T15:12:52;10.30;45.00
15937;DHT22;9163;48.818;8.976;2023-04-24T15:15:19;10.20;80.10
15937;DHT22;9163;48.818;8.976;2023-04-24T15:17:46;10.10;99.90
15937;DHT22;9163;48.818;8.976;2023-04-24T15:20:14;9.80;99.90
15937;DHT22;9163;48.818;8.976;2023-04-24T15:22:41;10.00;99.90
15937;DHT22;9163;48.818;8.976;2023-04-24T15:25:09;10.00;99.90
15937;DHT22;9163;48.818;8.976;2023-04-24T15:27:42;10.10;99.90
15937;DHT22;9163;48.818;8.976;2023-04-24T15:30:10;10.20;99.90
15937;DHT22;9163;48.818;8.976;2023-04-24T15:32:38;10.10;99.90
15937;DHT22;9163;48.818;8.976;2023-04-24T15:35:06;10.10;99.90
15937;DHT22;9163;48.818;8.976;2023-04-24T15:37:33;10.10;99.90
15937;DHT22;9163;48.818;8.976;2023-04-24T15:40:00;9.90;99.90
15937;DHT22;9163;48.818;8.976;2023-04-24T15:42:30;9.90;99.90
15937;DHT22;9163;48.818;8.976;2023-04-24T15:44:58;10.20;99.90
15937;DHT22;9163;48.818;8.976;2023-04-24T15:47:25;10.60;99.90
15937;DHT22;9163;48.818;8.976;2023-04-24T15:49:53;10.80;59.00
15937;DHT22;9163;48.818;8.976;2023-04-24T15:52:20;11.00;57.20
15937;DHT22;9163;48.818;8.976;2023-04-24T15:54:48;11.00;38.00
15937;DHT22;9163;48.818;8.976;2023-04-24T15:57:15;10.90;25.40
15937;DHT22;9163;48.818;8.976;2023-04-24T15:59:43;11.00;20.00
15937;DHT22;9163;48.818;8.976;2023-04-24T16:02:13;11.10;32.60
15937;DHT22;9163;48.818;8.976;2023-04-24T16:04:44;11.20;24.90
15937;DHT22;9163;48.818;8.976;2023-04-24T16:07:12;11.30;19.70
15937;DHT22;9163;48.818;8.976;2023-04-24T16:09:39;11.40;27.10
15937;DHT22;9163;48.818;8.976;2023-04-24T16:12:07;11.60;7.60
15937;DHT22;9163;48.818;8.976;2023-04-24T16:14:35;11.60;1.00
15937;DHT22;9163;48.818;8.976;2023-04-24T16:17:02;11.40;1.20
15937;DHT22;9163;48.818;8.976;2023-04-24T16:19:31;11.20;1.00
15937;DHT22;9163;48.818;8.976;2023-04-24T16:22:00;11.20;3.00
15937;DHT22;9163;48.818;8.976;2023-04-24T16:24:28;11.20;1.00
15937;DHT22;9163;48.818;8.976;2023-04-24T16:26:56;11.40;7.90
15937;DHT22;9163;48.818;8.976;2023-04-24T16:29:23;11.30;1.00
15937;DHT22;9163;48.818;8.976;2023-04-24T16:31:50;11.50;6.80
15937;DHT22;9163;48.818;8.976;2023-04-24T16:34:17;11.60;1.00
15937;DHT22;9163;48.818;8.976;2023-04-24T16:36:46;11.70;1.00
15937;DHT22;9163;48.818;8.976;2023-04-24T16:39:13;11.70;1.00
15937;DHT22;9163;48.818;8.976;2023-04-24T16:41:40;11.60;1.00
15937;DHT22;9163;48.818;8.976;2023-04-24T16:44:08;11.50;1.00
15937;DHT22;9163;48.818;8.976;2023-04-24T16:46:35;11.50;1.00
15937;DHT22;9163;48.818;8.976;2023-04-24T16:49:02;11.60;1.00
15937;DHT22;9163;48.818;8.976;2023-04-24T16:51:29;11.50;1.00
15937;DHT22;9163;48.818;8.976;2023-04-24T16:53:59;11.40;1.00
15937;DHT22;9163;48.818;8.976;2023-04-24T16:56:26;11.30;1.00
15937;DHT22;9163;48.818;8.976;2023-04-24T16:58:53;11.20;1.00
15937;DHT22;9163;48.818;8.976;2023-04-24T17:01:21;11.10;1.00
15937;DHT22;9163;48.818;8.976;2023-04-24T17:03:48;11.00;1.00
15937;DHT22;9163;48.818;8.976;2023-04-24T17:06:15;10.90;1.00
15937;DHT22;9163;48.818;8.976;2023-04-24T17:08:42;10.80;1.00
15937;DHT22;9163;48.818;8.976;2023-04-24T17:11:11;10.60;1.00
15937;DHT22;9163;48.818;8.976;2023-04-24T17:13:38;10.60;1.00
15937;DHT22;9163;48.818;8.976;2023-04-24T17:16:05;10.60;1.00
15937;DHT22;9163;48.818;8.976;2023-04-24T17:18:33;10.60;1.00
15937;DHT22;9163;48.818;8.976;2023-04-24T17:21:00;10.50;1.00
15937;DHT22;9163;48.818;8.976;2023-04-24T17:23:27;10.40;1.00
15937;DHT22;9163;48.818;8.976;2023-04-24T17:25:54;10.30;1.00
15937;DHT22;9163;48.818;8.976;2023-04-24T17:28:25;10.20;1.00
15937;DHT22;9163;48.818;8.976;2023-04-24T17:30:53;10.10;1.80
15937;DHT22;9163;48.818;8.976;2023-04-24T17:33:22;10.00;11.10
15937;DHT22;9163;48.818;8.976;2023-04-24T17:35:50;10.10;19.80
15937;DHT22;9163;48.818;8.976;2023-04-24T17:38:17;10.10;16.10
15937;DHT22;9163;48.818;8.976;2023-04-24T17:40:45;10.10;19.60
15937;DHT22;9163;48.818;8.976;2023-04-24T17:43:12;10.00;30.00
15937;DHT22;9163;48.818;8.976;2023-04-24T17:45:44;10.00;25.30
15937;DHT22;9163;48.818;8.976;2023-04-24T17:48:12;9.90;36.70
15937;DHT22;9163;48.818;8.976;2023-04-24T17:50:40;9.90;48.50
15937;DHT22;9163;48.818;8.976;2023-04-24T17:53:07;9.90;40.20
15937;DHT22;9163;48.818;8.976;2023-04-24T17:55:35;9.80;46.90
15937;DHT22;9163;48.818;8.976;2023-04-24T17:58:04;9.80;51.50
15937;DHT22;9163;48.818;8.976;2023-04-24T18:00:32;9.70;61.80
15937;DHT22;9163;48.818;8.976;2023-04-24T18:03:01;9.70;68.20
15937;DHT22;9163;48.818;8.976;2023-04-24T18:05:29;9.70;71.80
15937;DHT22;9163;48.818;8.976;2023-04-24T18:07:57;9.70;75.30
15937;DHT22;9163;48.818;8.976;2023-04-24T18:10:25;9.60;78.00
15937;DHT22;9163;48.818;8.976;2023-04-24T18:12:53;9.60;84.40
15937;DHT22;9163;48.818;8.976;2023-04-24T18:15:21;9.60;86.20
15937;DHT22;9163;48.818;8.976;2023-04-24T18:17:48;9.60;92.50
15937;DHT22;9163;48.818;8.976;2023-04-24T18:20:18;9.80;91.60
15937;DHT22;9163;48.818;8.976;2023-04-24T18:22:45;9.70;85.80
15937;DHT22;9163;48.818;8.976;2023-04-24T18:25:13;9.50;90.80
15937;DHT22;9163;48.818;8.976;2023-04-24T18:27:41;9.40;93.50
15937;DHT22;9163;48.818;8.976;2023-04-24T18:30:09;9.40;93.00
15937;DHT22;9163;48.818;8.976;2023-04-24T18:32:37;9.30;96.40
15937;DHT22;9163;48.818;8.976;2023-04-24T18:35:05;9.30;99.90
15937;DHT22;9163;48.818;8.976;2023-04-24T18:37:33;9.20;99.90
15937;DHT22;9163;48.818;8.976;2023-04-24T18:40:01;9.20;99.90
15937;DHT22;9163;48.818;8.976;2023-04-24T18:42:28;9.10;99.90
15937;DHT22;9163;48.818;8.976;2023-04-24T18:44:55;9.00;99.90
15937;DHT22;9163;48.818;8.976;2023-04-24T18:47:26;8.90;99.90
15937;DHT22;9163;48.818;8.976;2023-04-24T18:49:54;8.90;99.90
15937;DHT22;9163;48.818;8.976;2023-04-24T18:52:21;8.90;99.90
15937;DHT22;9163;48.818;8.976;2023-04-24T18:54:50;8.90;99.90
15937;DHT22;9163;48.818;8.976;2023-04-24T18:57:18;8.80;99.90
15937;DHT22;9163;48.818;8.976;2023-04-24T18:59:45;8.80;99.90
15937;DHT22;9163;48.818;8.976;2023-04-24T19:02:12;8.90;99.90
15937;DHT22;9163;48.818;8.976;2023-04-24T19:04:40;8.80;99.90
15937;DHT22;9163;48.818;8.976;2023-04-24T19:07:07;8.70;99.90
15937;DHT22;9163;48.818;8.976;2023-04-24T19:09:34;8.70;99.90
15937;DHT22;9163;48.818;8.976;2023-04-24T19:12:03;8.60;99.90
15937;DHT22;9163;48.818;8.976;2023-04-24T19:14:31;8.60;99.90
15937;DHT22;9163;48.818;8.976;2023-04-24T19:16:58;8.50;99.90
15937;DHT22;9163;48.818;8.976;2023-04-24T19:19:26;8.50;99.90
15937;DHT22;9163;48.818;8.976;2023-04-24T19:21:54;8.50;99.90
15937;DHT22;9163;48.818;8.976;2023-04-24T19:24:21;8.40;99.90
15937;DHT22;9163;48.818;8.976;2023-04-24T19:26:49;8.40;99.90
15937;DHT22;9163;48.818;8.976;2023-04-24T19:29:17;8.40;99.90
15937;DHT22;9163;48.818;8.976;2023-04-24T19:31:45;8.40;99.90
15937;DHT22;9163;48.818;8.976;2023-04-24T19:34:12;8.40;99.90
15937;DHT22;9163;48.818;8.976;2023-04-24T19:36:39;8.40;99.90
15937;DHT22;9163;48.818;8.976;2023-04-24T19:39:07;8.50;99.90
15937;DHT22;9163;48.818;8.976;2023-04-24T19:41:35;8.50;99.90
15937;DHT22;9163;48.818;8.976;2023-04-24T19:44:04;8.40;99.90
15937;DHT22;9163;48.818;8.976;2023-04-24T19:46:33;8.30;99.90
15937;DHT22;9163;48.818;8.976;2023-04-24T19:49:00;8.40;99.90
15937;DHT22;9163;48.818;8.976;2023-04-24T19:51:27;8.40;99.90
15937;DHT22;9163;48.818;8.976;2023-04-24T19:53:57;8.30;99.90
15937;DHT22;9163;48.818;8.976;2023-04-24T19:56:24;8.30;99.90
15937;DHT22;9163;48.818;8.976;2023-04-24T19:58:51;8.30;99.90
15937;DHT22;9163;48.818;8.976;2023-04-24T20:01:18;8.30;99.90
15937;DHT22;9163;48.818;8.976;2023-04-24T20:03:53;8.30;99.90
15937;DHT22;9163;48.818;8.976;2023-04-24T20:06:25;8.20;99.90
15937;DHT22;9163;48.818;8.976;2023-04-24T20:08:52;8.20;99.90
15937;DHT22;9163;48.818;8.976;2023-04-24T20:11:19;8.10;99.90
15937;DHT22;9163;48.818;8.976;2023-04-24T20:13:46;8.10;99.90
15937;DHT22;9163;48.818;8.976;2023-04-24T20:16:14;8.00;99.90
15937;DHT22;9163;48.818;8.976;2023-04-24T20:18:41;8.00;99.90
15937;DHT22;9163;48.818;8.976;2023-04-24T20:21:11;7.90;99.90
15937;DHT22;9163;48.818;8.976;2023-04-24T20:23:38;7.90;99.90